sensor_id;sensor_type;location;lat;lon;timestamp;pressure;altitude;pressure_sealevel;temperature;humidity
66196;BME280;53000;45.182;5.736;2023-05-23T00:00:12;99158.69;;;19.68;55.54
66196;BME280;53000;45.182;5.736;2023-05-23T00:02:38;99157.09;;;19.60;55.17
66196;BME280;53000;45.182;5.736;2023-05-23T00:05:04;99160.09;;;19.58;55.04
66196;BME280;53000;45.182;5.736;2023-05-23T00:07:31;99158.88;;;19.54;55.33
66196;BME280;53000;45.182;5.736;2023-05-23T00:09:56;99155.31;;;19.54;55.40
66196;BME280;53000;45.182;5.736;2023-05-23T00:12:22;99158.28;;;19.52;55.58
66196;BME280;53000;45.182;5.736;2023-05-23T00:14:47;99155.97;;;19.49;55.24
66196;BME280;53000;45.182;5.736;2023-05-23T00:17:12;99153.47;;;19.48;55.06
66196;BME280;53000;45.182;5.736;2023-05-23T00:19:38;99151.66;;;19.41;55.60
66196;BME280;53000;45.182;5.736;2023-05-23T00:22:03;99148.75;;;19.36;55.32
66196;BME280;53000;45.182;5.736;2023-05-23T00:24:29;99146.69;;;19.32;55.99
66196;BME280;53000;45.182;5.736;2023-05-23T00:26:55;99134.28;;;19.29;55.20
66196;BME280;53000;45.182;5.736;2023-05-23T00:29:20;99137.63;;;19.31;55.99
66196;BME280;53000;45.182;5.736;2023-05-23T00:31:45;99135.09;;;19.30;56.17
66196;BME280;53000;45.182;5.736;2023-05-23T00:34:14;99138.72;;;19.30;55.71
66196;BME280;53000;45.182;5.736;2023-05-23T00:36:42;99128.34;;;19.32;55.87
66196;BME280;53000;45.182;5.736;2023-05-23T00:39:08;99125.34;;;19.34;55.54
66196;BME280;53000;45.182;5.736;2023-05-23T00:41:34;99131.66;;;19.34;55.69
66196;BME280;53000;45.182;5.736;2023-05-23T00:44:00;99127.88;;;19.35;56.08
66196;BME280;53000;45.182;5.736;2023-05-23T00:46:26;99134.66;;;19.33;55.42
66196;BME280;53000;45.182;5.736;2023-05-23T00:48:52;99128.91;;;19.34;55.50
66196;BME280;53000;45.182;5.736;2023-05-23T00:51:19;99128.91;;;19.34;55.90
66196;BME280;53000;45.182;5.736;2023-05-23T00:53:45;99134.19;;;19.36;55.99
66196;BME280;53000;45.182;5.736;2023-05-23T00:56:11;99135.28;;;19.35;55.83
66196;BME280;53000;45.182;5.736;2023-05-23T00:58:37;99132.16;;;19.31;55.84
66196;BME280;53000;45.182;5.736;2023-05-23T01:01:02;99138.47;;;19.32;55.42
66196;BME280;53000;45.182;5.736;2023-05-23T01:03:28;99134.06;;;19.31;55.17
66196;BME280;53000;45.182;5.736;2023-05-23T01:05:55;99133.88;;;19.26;55.76
66196;BME280;53000;45.182;5.736;2023-05-23T01:08:21;99119.19;;;19.20;56.06
66196;BME280;53000;45.182;5.736;2023-05-23T01:10:46;99128.97;;;19.16;56.45
66196;BME280;53000;45.182;5.736;2023-05-23T01:13:38;99128.16;;;19.09;55.90
66196;BME280;53000;45.182;5.736;2023-05-23T01:16:16;99131.16;;;19.07;56.73
66196;BME280;53000;45.182;5.736;2023-05-23T01:18:57;99139.41;;;19.07;56.24
66196;BME280;53000;45.182;5.736;2023-05-23T01:21:25;99144.41;;;19.10;55.69
66196;BME280;53000;45.182;5.736;2023-05-23T01:29:24;99145.19;;;18.99;56.17
66196;BME280;53000;45.182;5.736;2023-05-23T01:31:56;99135.72;;;18.95;56.27
66196;BME280;53000;45.182;5.736;2023-05-23T01:34:22;99137.41;;;18.96;56.27
66196;BME280;53000;45.182;5.736;2023-05-23T01:36:54;99146.47;;;18.96;56.30
66196;BME280;53000;45.182;5.736;2023-05-23T01:39:20;99149.28;;;18.90;57.05
66196;BME280;53000;45.182;5.736;2023-05-23T01:41:48;99143.63;;;18.85;56.80
66196;BME280;53000;45.182;5.736;2023-05-23T01:44:14;99141.16;;;18.76;57.26
66196;BME280;53000;45.182;5.736;2023-05-23T01:46:40;99146.09;;;18.68;57.18
66196;BME280;53000;45.182;5.736;2023-05-23T01:49:07;99139.38;;;18.64;56.98
66196;BME280;53000;45.182;5.736;2023-05-23T01:51:34;99129.34;;;18.57;57.45
66196;BME280;53000;45.182;5.736;2023-05-23T01:54:00;99133.34;;;18.55;57.91
66196;BME280;53000;45.182;5.736;2023-05-23T01:56:26;99130.84;;;18.53;56.88
66196;BME280;53000;45.182;5.736;2023-05-23T01:58:52;99136.53;;;18.52;57.42
66196;BME280;53000;45.182;5.736;2023-05-23T02:01:18;99128.94;;;18.54;57.48
66196;BME280;53000;45.182;5.736;2023-05-23T02:03:44;99123.25;;;18.55;58.28
66196;BME280;53000;45.182;5.736;2023-05-23T02:06:09;99125.97;;;18.55;57.93
66196;BME280;53000;45.182;5.736;2023-05-23T02:08:35;99122.38;;;18.55;57.21
66196;BME280;53000;45.182;5.736;2023-05-23T02:11:00;99121.13;;;18.57;57.41
66196;BME280;53000;45.182;5.736;2023-05-23T02:13:25;99117.50;;;18.57;57.80
66196;BME280;53000;45.182;5.736;2023-05-23T02:15:50;99115.38;;;18.59;57.64
66196;BME280;53000;45.182;5.736;2023-05-23T02:18:16;99122.09;;;18.63;57.49
66196;BME280;53000;45.182;5.736;2023-05-23T02:20:42;99119.97;;;18.65;58.07
66196;BME280;53000;45.182;5.736;2023-05-23T02:23:07;99124.41;;;18.66;57.46
66196;BME280;53000;45.182;5.736;2023-05-23T02:25:32;99128.59;;;18.69;57.02
66196;BME280;53000;45.182;5.736;2023-05-23T02:27:58;99122.50;;;18.67;57.81
66196;BME280;53000;45.182;5.736;2023-05-23T02:30:23;99130.09;;;18.65;57.57
66196;BME280;53000;45.182;5.736;2023-05-23T02:32:48;99124.41;;;18.66;57.63
66196;BME280;53000;45.182;5.736;2023-05-23T02:35:14;99123.72;;;18.71;57.65
66196;BME280;53000;45.182;5.736;2023-05-23T02:37:39;99129.81;;;18.73;57.70
66196;BME280;53000;45.182;5.736;2023-05-23T02:40:05;99126.59;;;18.76;57.11
66196;BME280;53000;45.182;5.736;2023-05-23T02:42:34;99127.44;;;18.76;57.49
66196;BME280;53000;45.182;5.736;2023-05-23T02:45:00;99134.19;;;18.80;57.55
66196;BME280;53000;45.182;5.736;2023-05-23T02:47:25;99131.22;;;18.82;57.66
66196;BME280;53000;45.182;5.736;2023-05-23T02:49:51;99133.56;;;18.78;57.35
66196;BME280;53000;45.182;5.736;2023-05-23T02:52:16;99134.63;;;18.77;57.44
66196;BME280;53000;45.182;5.736;2023-05-23T02:54:41;99130.81;;;18.78;57.33
66196;BME280;53000;45.182;5.736;2023-05-23T02:57:07;99135.03;;;18.81;57.30
66196;BME280;53000;45.182;5.736;2023-05-23T02:59:32;99126.34;;;18.84;57.06
66196;BME280;53000;45.182;5.736;2023-05-23T03:01:58;99128.63;;;18.87;57.09
66196;BME280;53000;45.182;5.736;2023-05-23T03:04:23;99127.34;;;18.90;57.07
66196;BME280;53000;45.182;5.736;2023-05-23T03:06:48;99126.88;;;18.93;56.73
66196;BME280;53000;45.182;5.736;2023-05-23T03:09:14;99136.19;;;18.92;57.14
66196;BME280;53000;45.182;5.736;2023-05-23T03:11:41;99133.66;;;18.90;57.32
66196;BME280;53000;45.182;5.736;2023-05-23T03:14:07;99133.66;;;18.90;57.41
66196;BME280;53000;45.182;5.736;2023-05-23T03:16:32;99139.78;;;18.92;57.46
66196;BME280;53000;45.182;5.736;2023-05-23T03:18:57;99134.91;;;18.94;57.27
66196;BME280;53000;45.182;5.736;2023-05-23T03:21:23;99131.94;;;18.96;57.17
66196;BME280;53000;45.182;5.736;2023-05-23T03:23:48;99147.44;;;19.02;57.37
66196;BME280;53000;45.182;5.736;2023-05-23T03:26:14;99141.53;;;19.05;57.05
66196;BME280;53000;45.182;5.736;2023-05-23T03:28:40;99140.63;;;19.11;57.26
66196;BME280;53000;45.182;5.736;2023-05-23T03:31:05;99145.63;;;19.14;57.35
66196;BME280;53000;45.182;5.736;2023-05-23T03:33:30;99141.84;;;19.15;56.97
66196;BME280;53000;45.182;5.736;2023-05-23T03:35:56;99142.69;;;19.16;56.90
66196;BME280;53000;45.182;5.736;2023-05-23T03:38:21;99141.59;;;19.17;56.80
66196;BME280;53000;45.182;5.736;2023-05-23T03:40:47;99135.06;;;19.18;57.02
66196;BME280;53000;45.182;5.736;2023-05-23T03:43:12;99143.06;;;19.19;56.83
66196;BME280;53000;45.182;5.736;2023-05-23T03:45:37;99138.63;;;19.18;56.88
66196;BME280;53000;45.182;5.736;2023-05-23T03:48:03;99142.81;;;19.21;56.82
66196;BME280;53000;45.182;5.736;2023-05-23T03:50:28;99142.59;;;19.23;56.81
66196;BME280;53000;45.182;5.736;2023-05-23T03:52:54;99135.66;;;19.20;56.96
66196;BME280;53000;45.182;5.736;2023-05-23T03:55:20;99148.47;;;19.26;56.80
66196;BME280;53000;45.182;5.736;2023-05-23T03:57:47;99149.09;;;19.28;56.54
66196;BME280;53000;45.182;5.736;2023-05-23T04:00:13;99148.81;;;19.30;56.54
66196;BME280;53000;45.182;5.736;2023-05-23T04:02:39;99142.28;;;19.31;56.57
66196;BME280;53000;45.182;5.736;2023-05-23T04:05:05;99137.63;;;19.31;56.79
66196;BME280;53000;45.182;5.736;2023-05-23T04:07:31;99139.91;;;19.34;56.57
66196;BME280;53000;45.182;5.736;2023-05-23T04:09:59;99145.16;;;19.36;56.46
66196;BME280;53000;45.182;5.736;2023-05-23T04:12:24;99144.34;;;19.35;56.53
66196;BME280;53000;45.182;5.736;2023-05-23T04:14:50;99143.72;;;19.33;56.32
66196;BME280;53000;45.182;5.736;2023-05-23T04:17:15;99140.97;;;19.33;56.41
66196;BME280;53000;45.182;5.736;2023-05-23T04:19:40;99137.84;;;19.30;56.46
66196;BME280;53000;45.182;5.736;2023-05-23T04:22:06;99139.16;;;19.27;56.62
66196;BME280;53000;45.182;5.736;2023-05-23T04:24:31;99135.19;;;19.23;56.49
66196;BME280;53000;45.182;5.736;2023-05-23T04:26:56;99138.75;;;19.24;57.07
66196;BME280;53000;45.182;5.736;2023-05-23T04:29:23;99144.25;;;19.24;56.89
66196;BME280;53000;45.182;5.736;2023-05-23T04:31:50;99142.19;;;19.19;56.98
66196;BME280;53000;45.182;5.736;2023-05-23T04:34:15;99147.94;;;19.17;56.99
66196;BME280;53000;45.182;5.736;2023-05-23T04:36:41;99150.69;;;19.17;57.25
66196;BME280;53000;45.182;5.736;2023-05-23T04:39:08;99148.78;;;19.18;57.33
66196;BME280;53000;45.182;5.736;2023-05-23T04:41:34;99150.44;;;19.19;56.97
66196;BME280;53000;45.182;5.736;2023-05-23T04:44:00;99149.38;;;19.20;57.37
66196;BME280;53000;45.182;5.736;2023-05-23T04:46:26;99154.63;;;19.21;57.66
66196;BME280;53000;45.182;5.736;2023-05-23T04:48:54;99156.44;;;19.28;57.20
66196;BME280;53000;45.182;5.736;2023-05-23T04:51:20;99163.16;;;19.32;57.56
66196;BME280;53000;45.182;5.736;2023-05-23T04:53:47;99160.41;;;19.32;57.29
66196;BME280;53000;45.182;5.736;2023-05-23T04:56:14;99156.63;;;19.33;57.51
66196;BME280;53000;45.182;5.736;2023-05-23T04:58:39;99158.53;;;19.32;57.22
66196;BME280;53000;45.182;5.736;2023-05-23T05:01:06;99162.31;;;19.31;57.63
66196;BME280;53000;45.182;5.736;2023-05-23T05:03:33;99159.59;;;19.31;57.52
66196;BME280;53000;45.182;5.736;2023-05-23T05:05:59;99157.44;;;19.33;57.82
66196;BME280;53000;45.182;5.736;2023-05-23T05:08:26;99157.44;;;19.33;57.52
66196;BME280;53000;45.182;5.736;2023-05-23T05:10:51;99156.16;;;19.36;57.22
66196;BME280;53000;45.182;5.736;2023-05-23T05:13:16;99153.78;;;19.39;57.70
66196;BME280;53000;45.182;5.736;2023-05-23T05:15:42;99150.81;;;19.41;57.41
66196;BME280;53000;45.182;5.736;2023-05-23T05:18:07;99154.75;;;19.45;57.23
66196;BME280;53000;45.182;5.736;2023-05-23T05:20:32;99157.66;;;19.50;57.07
66196;BME280;53000;45.182;5.736;2023-05-23T05:22:58;99159.72;;;19.55;57.18
66196;BME280;53000;45.182;5.736;2023-05-23T05:25:23;99161.75;;;19.59;56.97
66196;BME280;53000;45.182;5.736;2023-05-23T05:27:49;99157.72;;;19.62;57.12
66196;BME280;53000;45.182;5.736;2023-05-23T05:30:15;99159.53;;;19.68;56.68
66196;BME280;53000;45.182;5.736;2023-05-23T05:32:40;99157.22;;;19.72;56.70
66196;BME280;53000;45.182;5.736;2023-05-23T05:35:06;99153.97;;;19.75;56.65
66196;BME280;53000;45.182;5.736;2023-05-23T05:37:32;99153.97;;;19.75;56.41
66196;BME280;53000;45.182;5.736;2023-05-23T05:39:58;99164.03;;;19.81;56.19
66196;BME280;53000;45.182;5.736;2023-05-23T05:42:27;99158.09;;;19.84;55.99
66196;BME280;53000;45.182;5.736;2023-05-23T05:44:52;99160.84;;;19.84;55.94
66196;BME280;53000;45.182;5.736;2023-05-23T05:47:17;99161.28;;;19.81;55.82
66196;BME280;53000;45.182;5.736;2023-05-23T05:49:43;99151.13;;;19.81;55.87
66196;BME280;53000;45.182;5.736;2023-05-23T05:52:08;99156.41;;;19.83;55.64
66196;BME280;53000;45.182;5.736;2023-05-23T05:54:34;99154.75;;;19.82;55.54
66196;BME280;53000;45.182;5.736;2023-05-23T05:57:00;99153.44;;;19.85;55.65
66196;BME280;53000;45.182;5.736;2023-05-23T05:59:25;99155.00;;;19.92;55.64
66196;BME280;53000;45.182;5.736;2023-05-23T06:01:51;99161.25;;;19.99;55.37
66196;BME280;53000;45.182;5.736;2023-05-23T06:04:17;99162.22;;;20.05;55.07
66196;BME280;53000;45.182;5.736;2023-05-23T06:06:43;99150.78;;;20.08;55.08
66196;BME280;53000;45.182;5.736;2023-05-23T06:09:08;99156.25;;;20.08;54.98
66196;BME280;53000;45.182;5.736;2023-05-23T06:11:35;99153.63;;;20.13;55.02
66196;BME280;53000;45.182;5.736;2023-05-23T06:14:03;99151.66;;;20.20;54.88
66196;BME280;53000;45.182;5.736;2023-05-23T06:16:28;99161.94;;;20.25;54.66
66196;BME280;53000;45.182;5.736;2023-05-23T06:18:53;99157.50;;;20.24;54.81
66196;BME280;53000;45.182;5.736;2023-05-23T06:21:19;99163.47;;;20.21;54.78
66196;BME280;53000;45.182;5.736;2023-05-23T06:23:44;99159.88;;;20.20;54.87
66196;BME280;53000;45.182;5.736;2023-05-23T06:26:09;99162.38;;;20.22;54.85
66196;BME280;53000;45.182;5.736;2023-05-23T06:28:37;99159.28;;;20.18;54.98
66196;BME280;53000;45.182;5.736;2023-05-23T06:31:03;99159.03;;;20.20;54.92
66196;BME280;53000;45.182;5.736;2023-05-23T06:33:29;99154.50;;;20.26;55.00
66196;BME280;53000;45.182;5.736;2023-05-23T06:35:55;99148.06;;;20.32;54.92
66196;BME280;53000;45.182;5.736;2023-05-23T06:38:21;99152.41;;;20.39;54.77
66196;BME280;53000;45.182;5.736;2023-05-23T06:40:46;99159.22;;;20.49;54.63
66196;BME280;53000;45.182;5.736;2023-05-23T06:43:12;99161.84;;;20.55;54.36
66196;BME280;53000;45.182;5.736;2023-05-23T06:45:37;99162.59;;;20.62;54.53
66196;BME280;53000;45.182;5.736;2023-05-23T06:48:03;99159.72;;;20.69;54.26
66196;BME280;53000;45.182;5.736;2023-05-23T06:50:28;99160.47;;;20.76;54.49
66196;BME280;53000;45.182;5.736;2023-05-23T06:52:54;99169.19;;;20.85;53.97
66196;BME280;53000;45.182;5.736;2023-05-23T06:55:19;99162.47;;;20.93;53.94
66196;BME280;53000;45.182;5.736;2023-05-23T06:57:44;99169.56;;;21.00;53.70
66196;BME280;53000;45.182;5.736;2023-05-23T07:00:11;99167.50;;;21.08;53.89
66196;BME280;53000;45.182;5.736;2023-05-23T07:02:38;99168.81;;;21.17;53.71
66196;BME280;53000;45.182;5.736;2023-05-23T07:05:03;99163.66;;;21.20;53.37
66196;BME280;53000;45.182;5.736;2023-05-23T07:07:29;99162.34;;;21.23;53.11
66196;BME280;53000;45.182;5.736;2023-05-23T07:09:54;99161.84;;;21.26;52.96
66196;BME280;53000;45.182;5.736;2023-05-23T07:12:19;99156.72;;;21.30;53.50
66196;BME280;53000;45.182;5.736;2023-05-23T07:14:45;99146.16;;;21.38;53.27
66196;BME280;53000;45.182;5.736;2023-05-23T07:17:10;99155.38;;;21.44;52.69
66196;BME280;53000;45.182;5.736;2023-05-23T07:19:36;99156.09;;;21.51;52.71
66196;BME280;53000;45.182;5.736;2023-05-23T07:22:02;99157.00;;;21.57;52.08
66196;BME280;53000;45.182;5.736;2023-05-23T07:24:27;99152.47;;;21.62;52.72
66196;BME280;53000;45.182;5.736;2023-05-23T07:26:52;99150.22;;;21.76;52.64
66196;BME280;53000;45.182;5.736;2023-05-23T07:29:18;99148.13;;;21.95;52.71
66196;BME280;53000;45.182;5.736;2023-05-23T07:31:43;99151.25;;;22.16;51.78
66196;BME280;53000;45.182;5.736;2023-05-23T07:34:08;99147.97;;;22.31;51.40
66196;BME280;53000;45.182;5.736;2023-05-23T07:36:34;99149.28;;;22.45;51.33
66196;BME280;53000;45.182;5.736;2023-05-23T07:39:02;99137.09;;;22.58;50.94
66196;BME280;53000;45.182;5.736;2023-05-23T07:41:27;99145.09;;;22.76;50.25
66196;BME280;53000;45.182;5.736;2023-05-23T07:43:52;99144.00;;;23.55;48.71
66196;BME280;53000;45.182;5.736;2023-05-23T07:46:18;99140.84;;;25.25;45.74
66196;BME280;53000;45.182;5.736;2023-05-23T07:48:44;99134.25;;;26.76;45.88
66196;BME280;53000;45.182;5.736;2023-05-23T07:51:09;99138.44;;;28.19;43.81
66196;BME280;53000;45.182;5.736;2023-05-23T07:53:34;99140.94;;;29.43;36.44
66196;BME280;53000;45.182;5.736;2023-05-23T07:56:04;99141.63;;;30.53;38.54
66196;BME280;53000;45.182;5.736;2023-05-23T07:58:30;99139.44;;;31.57;36.52
66196;BME280;53000;45.182;5.736;2023-05-23T08:00:55;99138.19;;;32.50;36.34
66196;BME280;53000;45.182;5.736;2023-05-23T08:03:22;99132.34;;;33.14;35.99
66196;BME280;53000;45.182;5.736;2023-05-23T08:05:47;99126.94;;;33.67;30.46
66196;BME280;53000;45.182;5.736;2023-05-23T08:08:13;99139.19;;;33.97;30.41
66196;BME280;53000;45.182;5.736;2023-05-23T08:10:38;99134.06;;;34.08;30.82
66196;BME280;53000;45.182;5.736;2023-05-23T08:13:04;99125.47;;;34.04;29.53
66196;BME280;53000;45.182;5.736;2023-05-23T08:15:31;99124.97;;;34.02;27.74
66196;BME280;53000;45.182;5.736;2023-05-23T08:17:57;99124.31;;;33.88;28.25
66196;BME280;53000;45.182;5.736;2023-05-23T08:20:23;99123.50;;;33.87;31.76
66196;BME280;53000;45.182;5.736;2023-05-23T08:23:04;99123.84;;;34.03;31.48
66196;BME280;53000;45.182;5.736;2023-05-23T08:25:29;99120.53;;;34.10;30.96
66196;BME280;53000;45.182;5.736;2023-05-23T08:27:59;99120.38;;;34.15;29.57
66196;BME280;53000;45.182;5.736;2023-05-23T08:30:26;99126.81;;;34.07;31.48
66196;BME280;53000;45.182;5.736;2023-05-23T08:32:52;99128.00;;;34.14;32.45
66196;BME280;53000;45.182;5.736;2023-05-23T08:35:19;99118.44;;;34.15;31.16
66196;BME280;53000;45.182;5.736;2023-05-23T08:37:45;99116.72;;;34.06;28.71
66196;BME280;53000;45.182;5.736;2023-05-23T08:40:18;99119.03;;;33.86;31.07
66196;BME280;53000;45.182;5.736;2023-05-23T08:42:44;99103.91;;;33.56;32.12
66196;BME280;53000;45.182;5.736;2023-05-23T08:45:10;99111.09;;;33.31;30.53
66196;BME280;53000;45.182;5.736;2023-05-23T08:47:36;99112.72;;;33.14;32.19
66196;BME280;53000;45.182;5.736;2023-05-23T08:50:07;99116.50;;;33.18;33.33
66196;BME280;53000;45.182;5.736;2023-05-23T08:52:36;99110.66;;;33.46;31.39
66196;BME280;53000;45.182;5.736;2023-05-23T08:55:05;99110.25;;;33.70;31.87
66196;BME280;53000;45.182;5.736;2023-05-23T08:57:31;99107.31;;;33.84;31.95
66196;BME280;53000;45.182;5.736;2023-05-23T08:59:59;99112.75;;;33.89;29.32
66196;BME280;53000;45.182;5.736;2023-05-23T09:02:25;99108.47;;;33.92;31.01
66196;BME280;53000;45.182;5.736;2023-05-23T09:04:51;99095.06;;;34.06;31.91
66196;BME280;53000;45.182;5.736;2023-05-23T09:07:17;99104.19;;;34.29;30.40
66196;BME280;53000;45.182;5.736;2023-05-23T09:09:43;99101.88;;;34.22;31.47
66196;BME280;53000;45.182;5.736;2023-05-23T09:12:09;99097.59;;;34.16;31.23
66196;BME280;53000;45.182;5.736;2023-05-23T09:14:34;99101.53;;;33.98;31.32
66196;BME280;53000;45.182;5.736;2023-05-23T09:17:01;99101.38;;;33.86;30.68
66196;BME280;53000;45.182;5.736;2023-05-23T09:19:27;99093.06;;;33.63;32.22
66196;BME280;53000;45.182;5.736;2023-05-23T09:21:53;99092.50;;;33.52;31.13
66196;BME280;53000;45.182;5.736;2023-05-23T09:24:19;99085.84;;;33.22;31.60
66196;BME280;53000;45.182;5.736;2023-05-23T09:26:48;99087.41;;;32.74;31.91
66196;BME280;53000;45.182;5.736;2023-05-23T09:29:16;99088.50;;;32.19;33.18
66196;BME280;53000;45.182;5.736;2023-05-23T09:31:43;99088.31;;;31.79;33.56
66196;BME280;53000;45.182;5.736;2023-05-23T09:34:08;99079.63;;;31.53;33.93
66196;BME280;53000;45.182;5.736;2023-05-23T09:36:34;99068.97;;;31.28;34.35
66196;BME280;53000;45.182;5.736;2023-05-23T09:39:04;99075.94;;;31.16;35.07
66196;BME280;53000;45.182;5.736;2023-05-23T09:41:35;99073.13;;;31.16;35.64
66196;BME280;53000;45.182;5.736;2023-05-23T09:44:06;99067.44;;;31.22;35.29
66196;BME280;53000;45.182;5.736;2023-05-23T09:46:34;99061.31;;;31.33;35.17
66196;BME280;53000;45.182;5.736;2023-05-23T09:49:00;99067.25;;;31.46;35.11
66196;BME280;53000;45.182;5.736;2023-05-23T09:51:26;99063.19;;;31.52;35.98
66196;BME280;53000;45.182;5.736;2023-05-23T09:53:52;99061.94;;;31.58;35.75
66196;BME280;53000;45.182;5.736;2023-05-23T09:56:18;99057.34;;;31.62;35.17
66196;BME280;53000;45.182;5.736;2023-05-23T09:58:48;99056.88;;;31.60;35.07
66196;BME280;53000;45.182;5.736;2023-05-23T10:01:14;99059.88;;;31.50;35.00
66196;BME280;53000;45.182;5.736;2023-05-23T10:06:43;99059.16;;;31.58;35.84
66196;BME280;53000;45.182;5.736;2023-05-23T10:09:16;99054.75;;;31.66;35.60
66196;BME280;53000;45.182;5.736;2023-05-23T10:14:15;99052.38;;;31.73;35.79
66196;BME280;53000;45.182;5.736;2023-05-23T10:19:48;99052.91;;;31.61;35.14
66196;BME280;53000;45.182;5.736;2023-05-23T10:22:16;99051.38;;;31.41;35.94
66196;BME280;53000;45.182;5.736;2023-05-23T10:24:44;99046.00;;;31.17;35.95
66196;BME280;53000;45.182;5.736;2023-05-23T10:27:10;99044.25;;;31.07;36.05
66196;BME280;53000;45.182;5.736;2023-05-23T10:29:36;99041.78;;;30.92;36.25
66196;BME280;53000;45.182;5.736;2023-05-23T10:32:02;99044.84;;;30.76;36.57
66196;BME280;53000;45.182;5.736;2023-05-23T10:37:07;99039.84;;;30.60;37.08
66196;BME280;53000;45.182;5.736;2023-05-23T10:39:49;99041.06;;;30.53;37.61
66196;BME280;53000;45.182;5.736;2023-05-23T10:42:37;99038.16;;;30.45;37.37
66196;BME280;53000;45.182;5.736;2023-05-23T10:45:16;99039.63;;;30.23;37.76
66196;BME280;53000;45.182;5.736;2023-05-23T10:47:42;99033.47;;;30.07;38.29
66196;BME280;53000;45.182;5.736;2023-05-23T10:50:11;99030.31;;;29.95;38.16
66196;BME280;53000;45.182;5.736;2023-05-23T10:52:38;99040.34;;;29.77;38.51
66196;BME280;53000;45.182;5.736;2023-05-23T10:55:14;99031.44;;;29.56;39.30
66196;BME280;53000;45.182;5.736;2023-05-23T10:57:42;99031.13;;;29.39;39.57
66196;BME280;53000;45.182;5.736;2023-05-23T11:00:15;99029.00;;;29.30;39.83
66196;BME280;53000;45.182;5.736;2023-05-23T11:03:06;99022.59;;;29.30;39.47
66196;BME280;53000;45.182;5.736;2023-05-23T11:05:33;99025.31;;;29.35;39.48
66196;BME280;53000;45.182;5.736;2023-05-23T11:08:12;99025.84;;;29.37;39.96
66196;BME280;53000;45.182;5.736;2023-05-23T11:13:15;99014.47;;;29.33;40.10
66196;BME280;53000;45.182;5.736;2023-05-23T11:15:41;99017.63;;;29.27;40.23
66196;BME280;53000;45.182;5.736;2023-05-23T11:18:09;99007.88;;;29.24;40.31
66196;BME280;53000;45.182;5.736;2023-05-23T11:20:36;99010.84;;;29.14;40.58
66196;BME280;53000;45.182;5.736;2023-05-23T11:23:04;99006.41;;;29.08;40.67
66196;BME280;53000;45.182;5.736;2023-05-23T11:25:47;99005.84;;;29.11;40.59
66196;BME280;53000;45.182;5.736;2023-05-23T11:28:12;99005.84;;;29.11;40.58
66196;BME280;53000;45.182;5.736;2023-05-23T11:30:38;99002.16;;;29.15;40.83
66196;BME280;53000;45.182;5.736;2023-05-23T11:33:12;98998.78;;;29.19;40.53
66196;BME280;53000;45.182;5.736;2023-05-23T11:35:44;99008.78;;;29.20;40.47
66196;BME280;53000;45.182;5.736;2023-05-23T11:38:10;98995.72;;;29.20;40.68
66196;BME280;53000;45.182;5.736;2023-05-23T11:40:38;98994.03;;;29.19;40.55
66196;BME280;53000;45.182;5.736;2023-05-23T11:43:08;98988.84;;;29.12;40.74
66196;BME280;53000;45.182;5.736;2023-05-23T11:45:35;99004.81;;;29.02;41.23
66196;BME280;53000;45.182;5.736;2023-05-23T11:48:09;98988.19;;;28.97;41.02
66196;BME280;53000;45.182;5.736;2023-05-23T11:50:47;98986.94;;;28.84;41.18
66196;BME280;53000;45.182;5.736;2023-05-23T11:53:13;98986.16;;;28.78;41.40
66196;BME280;53000;45.182;5.736;2023-05-23T11:55:54;98975.84;;;28.79;41.63
66196;BME280;53000;45.182;5.736;2023-05-23T11:58:21;98981.16;;;28.75;41.98
66196;BME280;53000;45.182;5.736;2023-05-23T12:00:46;98982.03;;;28.75;41.79
66196;BME280;53000;45.182;5.736;2023-05-23T12:03:12;98978.19;;;28.71;42.04
66196;BME280;53000;45.182;5.736;2023-05-23T12:05:37;98984.28;;;28.73;42.04
66196;BME280;53000;45.182;5.736;2023-05-23T12:08:03;98973.66;;;28.75;41.65
66196;BME280;53000;45.182;5.736;2023-05-23T12:10:28;98971.78;;;28.71;41.73
66196;BME280;53000;45.182;5.736;2023-05-23T12:12:54;98972.66;;;28.66;41.72
66196;BME280;53000;45.182;5.736;2023-05-23T12:15:24;98970.47;;;28.63;41.90
66196;BME280;53000;45.182;5.736;2023-05-23T12:17:52;98973.31;;;28.58;41.91
66196;BME280;53000;45.182;5.736;2023-05-23T12:20:18;98970.81;;;28.57;41.88
66196;BME280;53000;45.182;5.736;2023-05-23T12:22:44;98966.91;;;28.58;42.24
66196;BME280;53000;45.182;5.736;2023-05-23T12:25:10;98967.44;;;28.60;42.22
66196;BME280;53000;45.182;5.736;2023-05-23T12:27:35;98964.47;;;28.51;42.30
66196;BME280;53000;45.182;5.736;2023-05-23T12:32:31;98961.47;;;28.42;42.66
66196;BME280;53000;45.182;5.736;2023-05-23T12:34:57;98952.91;;;28.39;42.68
66196;BME280;53000;45.182;5.736;2023-05-23T12:37:22;98951.88;;;28.29;42.72
66196;BME280;53000;45.182;5.736;2023-05-23T12:39:48;98953.03;;;28.23;42.97
66196;BME280;53000;45.182;5.736;2023-05-23T12:42:14;98953.91;;;28.24;42.82
66196;BME280;53000;45.182;5.736;2023-05-23T12:44:42;98951.13;;;28.24;42.76
66196;BME280;53000;45.182;5.736;2023-05-23T12:47:08;98955.88;;;28.18;42.81
66196;BME280;53000;45.182;5.736;2023-05-23T12:49:34;98956.53;;;28.10;43.37
66196;BME280;53000;45.182;5.736;2023-05-23T12:52:00;98952.09;;;28.09;42.96
66196;BME280;53000;45.182;5.736;2023-05-23T12:54:25;98941.44;;;28.16;43.17
66196;BME280;53000;45.182;5.736;2023-05-23T12:56:50;98941.44;;;28.16;43.00
66196;BME280;53000;45.182;5.736;2023-05-23T12:59:16;98938.66;;;28.16;42.92
66196;BME280;53000;45.182;5.736;2023-05-23T13:01:41;98941.50;;;28.11;42.86
66196;BME280;53000;45.182;5.736;2023-05-23T13:04:06;98944.38;;;28.01;43.26
66196;BME280;53000;45.182;5.736;2023-05-23T13:06:32;98925.53;;;27.92;43.63
66196;BME280;53000;45.182;5.736;2023-05-23T13:08:58;98931.38;;;27.91;43.85
66196;BME280;53000;45.182;5.736;2023-05-23T13:11:24;98926.06;;;27.94;43.43
66196;BME280;53000;45.182;5.736;2023-05-23T13:13:50;98928.25;;;27.98;43.32
66196;BME280;53000;45.182;5.736;2023-05-23T13:16:16;98924.91;;;28.01;43.60
66196;BME280;53000;45.182;5.736;2023-05-23T13:18:42;98922.66;;;28.03;43.29